Time,TemperatureF,DewpointF,PressureIn,WindDirection,WindDirectionDegrees,WindSpeedMPH,WindSpeedGustMPH,Humidity,HourlyPrecipIn,Conditions,Clouds,dailyrainin,SoftwareType,DateUTC
2013-04-17 00:07:00,61.5,57.9,30.05,SW,225,0.0,-999.0,88,-99.99,,,0.00,Acu-Link.com,2013-04-17 04:07:00,
2013-04-17 00:22:00,61.5,57.9,30.05,SW,225,0.0,-999.0,88,-99.99,,,0.00,Acu-Link.com,2013-04-17 04:22:00,
2013-04-17 00:37:00,61.5,57.9,30.05,SW,225,0.0,-999.0,88,-99.99,,,0.00,Acu-Link.com,2013-04-17 04:37:00,
2013-04-17 00:52:00,61.5,57.9,30.05,SW,225,0.0,-999.0,88,-99.99,,,0.00,Acu-Link.com,2013-04-17 04:52:00,
2013-04-17 01:08:00,61.5,57.9,30.04,SW,225,0.0,-999.0,88,-99.99,,,0.00,Acu-Link.com,2013-04-17 05:08:00,
2013-04-17 01:23:00,61.5,57.9,30.04,SW,225,0.0,-999.0,88,-99.99,,,0.00,Acu-Link.com,2013-04-17 05:23:00,
2013-04-17 01:38:00,61.5,57.9,30.04,SW,225,0.0,-999.0,88,-99.99,,,0.00,Acu-Link.com,2013-04-17 05:38:00,
2013-04-17 01:53:00,61.5,57.9,30.05,SW,225,0.0,-999.0,88,-99.99,,,0.00,Acu-Link.com,2013-04-17 05:53:00,
2013-04-17 02:08:00,61.5,57.9,30.04,SW,225,0.0,-999.0,88,-99.99,,,0.00,Acu-Link.com,2013-04-17 06:08:00,
2013-04-17 02:24:00,61.5,57.9,30.04,SW,225,0.0,-999.0,88,-99.99,,,0.00,Acu-Link.com,2013-04-17 06:24:00,
2013-04-17 02:39:00,61.5,57.9,30.03,SW,225,0.0,-999.0,88,-99.99,,,0.00,Acu-Link.com,2013-04-17 06:39:00,
2013-04-17 02:54:00,61.5,57.9,30.04,SW,225,0.0,-999.0,88,-99.99,,,0.00,Acu-Link.com,2013-04-17 06:54:00,
2013-04-17 03:09:00,61.5,57.9,30.04,SW,225,0.0,-999.0,88,-99.99,,,0.00,Acu-Link.com,2013-04-17 07:09:00,
2013-04-17 03:24:00,61.5,57.9,30.04,SW,225,0.0,-999.0,88,-99.99,,,0.00,Acu-Link.com,2013-04-17 07:24:00,
2013-04-17 03:40:00,61.5,57.9,30.04,SW,225,0.0,-999.0,88,-99.99,,,0.00,Acu-Link.com,2013-04-17 07:40:00,
2013-04-17 03:55:00,61.5,57.9,30.04,SW,225,0.0,-999.0,88,-99.99,,,0.00,Acu-Link.com,2013-04-17 07:55:00,
2013-04-17 04:10:00,61.5,57.9,30.04,SW,225,0.0,-999.0,88,-99.99,,,0.00,Acu-Link.com,2013-04-17 08:10:00,
2013-04-17 04:25:00,61.5,57.9,30.05,SW,225,0.0,-999.0,88,-99.99,,,0.00,Acu-Link.com,2013-04-17 08:25:00,
2013-04-17 04:40:00,61.5,57.9,30.04,SW,225,0.0,-999.0,88,-99.99,,,0.00,Acu-Link.com,2013-04-17 08:40:00,
2013-04-17 04:55:00,61.5,57.9,30.05,SW,225,0.0,-999.0,88,-99.99,,,0.00,Acu-Link.com,2013-04-17 08:55:00,
2013-04-17 05:11:00,61.5,57.9,30.04,SW,225,0.0,-999.0,88,-99.99,,,0.00,Acu-Link.com,2013-04-17 09:11:00,
2013-04-17 05:26:00,61.5,57.9,30.05,SW,225,0.0,-999.0,88,-99.99,,,0.00,Acu-Link.com,2013-04-17 09:26:00,
2013-04-17 05:41:00,61.5,57.9,30.05,SW,225,0.0,-999.0,88,-99.99,,,0.00,Acu-Link.com,2013-04-17 09:41:00,
2013-04-17 05:56:00,61.5,57.9,30.05,SW,225,0.0,-999.0,88,-99.99,,,0.00,Acu-Link.com,2013-04-17 09:56:00,
2013-04-17 06:11:00,61.5,57.9,30.05,SW,225,0.0,-999.0,88,-99.99,,,0.00,Acu-Link.com,2013-04-17 10:11:00,
2013-04-17 06:27:00,61.5,57.9,30.05,SW,225,0.0,-999.0,88,-99.99,,,0.00,Acu-Link.com,2013-04-17 10:27:00,
2013-04-17 06:42:00,61.5,57.9,30.04,SW,225,0.0,-999.0,88,-99.99,,,0.00,Acu-Link.com,2013-04-17 10:42:00,
2013-04-17 06:57:00,61.5,57.9,30.05,SW,225,0.0,-999.0,88,-99.99,,,0.00,Acu-Link.com,2013-04-17 10:57:00,
2013-04-17 07:12:00,61.5,57.9,30.05,SW,225,0.0,-999.0,88,-99.99,,,0.00,Acu-Link.com,2013-04-17 11:12:00,
2013-04-17 07:27:00,61.5,57.9,30.07,SW,225,0.0,-999.0,88,-99.99,,,0.00,Acu-Link.com,2013-04-17 11:27:00,
2013-04-17 07:43:00,61.5,57.9,30.07,SW,225,0.0,-999.0,88,-99.99,,,0.00,Acu-Link.com,2013-04-17 11:43:00,
2013-04-17 07:58:00,62.2,59.0,30.07,SW,225,0.0,-999.0,89,-99.99,,,0.00,Acu-Link.com,2013-04-17 11:58:00,
2013-04-17 08:13:00,63.7,59.4,30.07,East,90,0.0,-999.0,86,-99.99,,,0.00,Acu-Link.com,2013-04-17 12:13:00,
2013-04-17 08:28:00,63.7,59.4,30.07,East,90,0.0,-999.0,86,-99.99,,,0.00,Acu-Link.com,2013-04-17 12:28:00,
2013-04-17 08:44:00,63.7,59.4,30.07,East,90,0.0,-999.0,86,-99.99,,,0.00,Acu-Link.com,2013-04-17 12:44:00,
2013-04-17 08:59:00,63.7,59.4,30.07,East,90,0.0,-999.0,86,-99.99,,,0.00,Acu-Link.com,2013-04-17 12:59:00,
2013-04-17 09:14:00,63.7,59.4,30.07,East,90,0.0,-999.0,86,-99.99,,,0.00,Acu-Link.com,2013-04-17 13:14:00,
2013-04-17 09:29:00,74.1,61.6,30.07,East,90,1.6,-999.0,65,-99.99,,,0.00,Acu-Link.com,2013-04-17 13:29:00,
2013-04-17 09:44:00,74.1,61.6,30.06,East,90,1.6,-999.0,65,-99.99,,,0.00,Acu-Link.com,2013-04-17 13:44:00,
2013-04-17 10:00:00,74.1,61.6,30.06,East,90,1.6,-999.0,65,-99.99,,,0.00,Acu-Link.com,2013-04-17 14:00:00,
2013-04-17 10:15:00,82.4,62.4,30.06,NE,45,2.2,-999.0,51,-99.99,,,0.00,Acu-Link.com,2013-04-17 14:15:00,
2013-04-17 10:30:00,82.4,62.4,30.05,NE,45,3.8,-999.0,51,-99.99,,,0.00,Acu-Link.com,2013-04-17 14:30:00,
2013-04-17 10:45:00,82.4,62.4,30.05,NE,45,3.8,-999.0,51,-99.99,,,0.00,Acu-Link.com,2013-04-17 14:45:00,
2013-04-17 11:00:00,82.4,62.4,30.04,NE,45,3.8,-999.0,51,-99.99,,,0.00,Acu-Link.com,2013-04-17 15:00:00,
2013-04-17 11:16:00,83.3,63.3,30.04,East,90,4.3,-999.0,51,-99.99,,,0.00,Acu-Link.com,2013-04-17 15:16:00,
2013-04-17 11:31:00,81.5,61.6,30.03,NE,45,2.2,-999.0,51,-99.99,,,0.00,Acu-Link.com,2013-04-17 15:31:00,
2013-04-17 11:46:00,78.1,61.6,30.03,NNE,22,3.1,-999.0,57,-99.99,,,0.00,Acu-Link.com,2013-04-17 15:46:00,
2013-04-17 12:01:00,78.6,61.6,30.04,ENE,67,2.2,-999.0,56,-99.99,,,0.00,Acu-Link.com,2013-04-17 16:01:00,
2013-04-17 12:16:00,81.3,62.0,30.03,NNE,22,2.2,-999.0,52,-99.99,,,0.00,Acu-Link.com,2013-04-17 16:16:00,
2013-04-17 12:32:00,84.6,63.3,30.02,East,90,3.8,-999.0,49,-99.99,,,0.00,Acu-Link.com,2013-04-17 16:32:00,
2013-04-17 12:47:00,81.1,61.8,30.03,East,90,4.7,-999.0,52,-99.99,,,0.00,Acu-Link.com,2013-04-17 16:47:00,
2013-04-17 13:02:00,81.1,61.8,30.02,East,90,4.7,-999.0,52,-99.99,,,0.00,Acu-Link.com,2013-04-17 17:02:00,
2013-04-17 13:17:00,80.1,61.9,30.01,ESE,112,2.7,-999.0,54,-99.99,,,0.00,Acu-Link.com,2013-04-17 17:17:00,
2013-04-17 13:33:00,78.8,62.3,30.01,ENE,67,2.7,-999.0,57,-99.99,,,0.00,Acu-Link.com,2013-04-17 17:33:00,
2013-04-17 13:48:00,82.6,62.0,29.99,NNE,22,1.6,-999.0,50,-99.99,,,0.00,Acu-Link.com,2013-04-17 17:48:00,
2013-04-17 14:03:00,82.8,62.8,29.99,West,270,1.6,-999.0,51,-99.99,,,0.00,Acu-Link.com,2013-04-17 18:03:00,
2013-04-17 14:18:00,81.9,62.5,29.98,West,270,2.7,-999.0,52,-99.99,,,0.00,Acu-Link.com,2013-04-17 18:18:00,
2013-04-17 14:33:00,81.9,62.5,29.98,West,270,2.7,-999.0,52,-99.99,,,0.00,Acu-Link.com,2013-04-17 18:33:00,
2013-04-17 14:49:00,77.2,63.6,29.98,South,180,0.0,-999.0,63,-99.99,,,0.00,Acu-Link.com,2013-04-17 18:49:00,
2013-04-17 15:04:00,75.7,64.4,29.97,ENE,67,2.7,-999.0,68,-99.99,,,0.00,Acu-Link.com,2013-04-17 19:04:00,
2013-04-17 15:19:00,75.4,64.9,29.97,South,180,0.0,-999.0,70,-99.99,,,0.01,Acu-Link.com,2013-04-17 19:19:00,
2013-04-17 15:34:00,76.3,66.2,29.96,ENE,67,0.0,-999.0,71,-99.99,,,0.01,Acu-Link.com,2013-04-17 19:34:00,
2013-04-17 15:49:00,81.1,65.4,29.95,NNE,22,1.6,-999.0,59,-99.99,,,0.01,Acu-Link.com,2013-04-17 19:49:00,
2013-04-17 16:05:00,83.1,66.3,29.95,WSW,247,3.1,-999.0,57,-99.99,,,0.01,Acu-Link.com,2013-04-17 20:05:00,
2013-04-17 16:20:00,79.3,62.8,29.94,SW,225,2.2,-999.0,57,-99.99,,,0.01,Acu-Link.com,2013-04-17 20:20:00,
2013-04-17 16:35:00,79.2,62.1,29.94,WSW,247,3.1,-999.0,56,-99.99,,,0.01,Acu-Link.com,2013-04-17 20:35:00,
2013-04-17 16:50:00,78.4,62.9,29.95,West,270,1.1,-999.0,59,-99.99,,,0.01,Acu-Link.com,2013-04-17 20:50:00,
2013-04-17 17:05:00,72.1,61.4,29.98,NW,315,6.7,-999.0,69,-99.99,,,0.01,Acu-Link.com,2013-04-17 21:05:00,
2013-04-17 17:21:00,67.3,61.6,29.98,SW,225,0.0,-999.0,82,-99.99,,,0.01,Acu-Link.com,2013-04-17 21:21:00,
2013-04-17 17:36:00,66.9,61.9,29.97,West,270,1.1,-999.0,84,-99.99,,,0.01,Acu-Link.com,2013-04-17 21:36:00,
2013-04-17 17:51:00,66.6,62.2,29.99,SSW,202,0.0,-999.0,86,-99.99,,,0.01,Acu-Link.com,2013-04-17 21:51:00,
2013-04-17 18:06:00,65.1,61.5,29.98,NNW,337,2.7,-999.0,88,-99.99,,,0.02,Acu-Link.com,2013-04-17 22:06:00,
2013-04-17 18:22:00,63.5,60.8,29.99,WSW,247,2.2,-999.0,91,-99.99,,,0.02,Acu-Link.com,2013-04-17 22:22:00,
2013-04-17 18:37:00,63.5,61.4,30.00,WSW,247,0.0,-999.0,93,-99.99,,,0.07,Acu-Link.com,2013-04-17 22:37:00,
2013-04-17 18:52:00,63.1,61.4,30.01,SW,225,0.0,-999.0,94,-99.99,,,0.11,Acu-Link.com,2013-04-17 22:52:00,
2013-04-17 19:07:00,62.4,61.3,30.01,West,270,1.1,-999.0,96,-99.99,,,0.13,Acu-Link.com,2013-04-17 23:07:00,
2013-04-17 19:22:00,62.1,60.9,30.01,WNW,292,2.2,-999.0,96,-99.99,,,0.14,Acu-Link.com,2013-04-17 23:22:00,
2013-04-17 19:37:00,61.3,59.9,30.00,WSW,247,4.3,-999.0,95,-99.99,,,0.18,Acu-Link.com,2013-04-17 23:37:00,
2013-04-17 19:53:00,61.0,59.5,30.00,SSW,202,1.6,-999.0,95,-99.99,,,0.18,Acu-Link.com,2013-04-17 23:53:00,
2013-04-17 20:08:00,60.6,59.5,30.01,SW,225,2.2,-999.0,96,-99.99,,,0.18,Acu-Link.com,2013-04-18 00:08:00,
2013-04-17 20:23:00,60.6,59.5,30.02,West,270,2.2,-999.0,96,-99.99,,,0.18,Acu-Link.com,2013-04-18 00:23:00,
2013-04-17 20:38:00,60.6,59.5,30.02,East,90,1.1,-999.0,96,-99.99,,,0.18,Acu-Link.com,2013-04-18 00:38:00,
2013-04-17 20:53:00,60.6,59.5,30.02,East,90,1.1,-999.0,96,-99.99,,,0.18,Acu-Link.com,2013-04-18 00:53:00,
2013-04-17 21:09:00,60.6,59.5,30.02,East,90,1.1,-999.0,96,-99.99,,,0.18,Acu-Link.com,2013-04-18 01:09:00,
2013-04-17 21:24:00,60.6,59.5,30.02,East,90,1.1,-999.0,96,-99.99,,,0.18,Acu-Link.com,2013-04-18 01:24:00,
2013-04-17 21:39:00,60.3,59.4,30.01,WSW,247,0.0,-999.0,97,-99.99,,,0.22,Acu-Link.com,2013-04-18 01:39:00,
2013-04-17 21:54:00,60.3,59.4,30.01,South,180,0.0,-999.0,97,-99.99,,,0.25,Acu-Link.com,2013-04-18 01:54:00,
2013-04-17 22:09:00,60.3,59.4,30.00,South,180,0.0,-999.0,97,-99.99,,,0.26,Acu-Link.com,2013-04-18 02:09:00,
2013-04-17 22:25:00,59.7,59.2,30.01,SSW,202,1.6,-999.0,98,-99.99,,,0.26,Acu-Link.com,2013-04-18 02:25:00,
2013-04-17 22:40:00,59.2,58.6,30.00,West,270,0.0,-999.0,98,-99.99,,,0.29,Acu-Link.com,2013-04-18 02:40:00,
2013-04-17 22:55:00,59.2,58.6,29.99,South,180,0.0,-999.0,98,-99.99,,,0.29,Acu-Link.com,2013-04-18 02:55:00,
2013-04-17 23:10:00,59.0,58.4,29.97,WNW,292,0.0,-999.0,98,-99.99,,,0.29,Acu-Link.com,2013-04-18 03:10:00,
2013-04-17 23:26:00,59.0,58.4,29.94,SW,225,0.0,-999.0,98,-99.99,,,0.30,Acu-Link.com,2013-04-18 03:26:00,
2013-04-17 23:41:00,58.6,58.1,29.92,West,270,0.0,-999.0,98,-99.99,,,0.33,Acu-Link.com,2013-04-18 03:41:00,
2013-04-17 23:56:00,58.5,57.9,29.90,WSW,247,0.0,-999.0,98,-99.99,,,0.33,Acu-Link.com,2013-04-18 03:56:00,